South Ryegate, VT (05069)

8:51 AM EST on December 25, 2014 (GMT -0500)
Groton | Change Station
CLOSE
Current Station
Personal Weather Station
Location: Groton, VT
Elevation: 1640 ft
Nearby Weather Stations
Active Advisory: Areal Flood Watch Active Notice: Public Information Statement

Elev 1640 ft 44.20 °N, 72.28 °W | Updated 4 minutes ago

Rain
Rain
41.1 °F
Feels Like 38 °F
N
5.0
Wind Variable Wind from WNW
Gusts 20.0 mph

Today
High -- | Low -- °F
--% Chance of Precip.
Yesterday
High -- | Low -- °F
Precip. -- in
7:22 AM 4:14 PM
Waxing Crescent, 16% visible
Pressure 29.49 in
Visibility 8.0 miles
Clouds Few 2700 ft
Mostly Cloudy 3100 ft
Mostly Cloudy 5000 ft
Windchill 38 °F
Dew Point 36 °F
Humidity 82%
Rainfall 0.09 in
Snow Depth Not available.
UV 0 out of 12
Pollen .10 out of 12
Air Quality Not available.
Flu Activity Not available.
METAR KMPV 251251Z AUTO 23011G17KT 8SM -RA FEW027 BKN031 BKN050 06/03 A2946 RMK AO2 SLP985 P0004 T00610033

More Conditions Fewer Conditions

Pressure 29.49 in
Visibility 8.0 miles
Clouds Few 2700 ft
Mostly Cloudy 3100 ft
Mostly Cloudy 5000 ft
Windchill 38 °F
Dew Point 36 °F
Humidity 82%
Rainfall 0.09 in
Snow Depth Not available.
UV 0 out of 12
Pollen .10 out of 12
Air Quality Not available.
Flu Activity Not available.
METAR KMPV 251251Z AUTO 23011G17KT 8SM -RA FEW027 BKN031 BKN050 06/03 A2946 RMK AO2 SLP985 P0004 T00610033

More Conditions Fewer Conditions

10-Day Weather Forecast

Almanac

Astronomy

Dec. 25, 2014 Rise Set
Actual Time
Civil Twilight
Nautical Twilight
Astronomical Twilight
Moon
Length of Visible Light
Length of Day
Tomorrow will be .
, % of the Moon is Illuminated

Today's Extremes

State Highs State Lows

Community

WunderPhotos

Upload Photos

1,780,275 photos uploaded!

WunderBlogs® & News

Nearby

Air Quality

  Air Quality AQ Index Pollutant
Not available.

Snow Depth

Station Depth Elevation

Earthquake Activity

City Distance Mag. Time & Date
Minimum magnitude displayed is 2.5.

Coastal Water Temperatures

Place Temperature

Nearby Weather Stations